Time;durP1;ratioP1;P1;durP2;ratioP2;P2;SDS_P1;SDS_P2;PMS_P1;PMS_P2;Temp;Humidity;BMP_temperature;BMP_pressure;BME280_temperature;BME280_humidity;BME280_pressure;Samples;Min_cycle;Max_cycle;Signal;HPM_P1;HPM_P2
2022/12/01 00:02:04;;;;;;;216.75;56.63;;;;;;;;;;5019945;28;20037;-71
2022/12/01 00:04:30;;;;;;;232.45;62.13;;;;;;;;;;5022706;28;20037;-72
2022/12/01 00:06:56;;;;;;;253.07;66.57;;;;;;;;;;5026541;28;20033;-72
2022/12/01 00:12:07;;;;;;;302.38;69.45;;;;;;;;;;5020959;28;20069;-72
2022/12/01 00:14:33;;;;;;;297.30;67.60;;;;;;;;;;5040111;28;20034;-71
2022/12/01 00:16:59;;;;;;;304.08;70.03;;;;;;;;;;5016292;28;20087;-72
2022/12/01 00:19:25;;;;;;;276.30;70.63;;;;;;;;;;5007730;28;20164;-72
2022/12/01 00:21:51;;;;;;;279.20;66.40;;;;;;;;;;5013042;28;20084;-73
2022/12/01 00:24:18;;;;;;;265.92;64.97;;;;;;;;;;5027888;28;20439;-73
2022/12/01 00:26:44;;;;;;;276.13;61.90;;;;;;;;;;5006620;28;20052;-73
2022/12/01 00:29:10;;;;;;;255.38;58.78;;;;;;;;;;5024169;28;20099;-72
2022/12/01 00:31:36;;;;;;;242.25;58.63;;;;;;;;;;5021506;28;20026;-73
2022/12/01 00:34:03;;;;;;;240.13;59.85;;;;;;;;;;5022083;28;20033;-72
2022/12/01 00:36:29;;;;;;;229.93;56.38;;;;;;;;;;5019036;28;20033;-72
2022/12/01 00:38:55;;;;;;;234.48;57.28;;;;;;;;;;5012329;28;20042;-72
2022/12/01 00:41:22;;;;;;;213.65;55.10;;;;;;;;;;5016131;28;21340;-72
2022/12/01 00:43:49;;;;;;;201.70;56.30;;;;;;;;;;5019688;28;20041;-72
2022/12/01 00:46:15;;;;;;;226.23;57.30;;;;;;;;;;5004785;28;20107;-71
2022/12/01 00:48:41;;;;;;;215.20;53.33;;;;;;;;;;5027875;28;20033;-71
2022/12/01 00:51:08;;;;;;;227.45;56.85;;;;;;;;;;5000939;28;20115;-72
2022/12/01 00:53:34;;;;;;;211.05;53.67;;;;;;;;;;5009623;28;20033;-72
2022/12/01 00:56:00;;;;;;;221.60;55.38;;;;;;;;;;5025766;28;20033;-73
2022/12/01 00:58:26;;;;;;;209.18;53.95;;;;;;;;;;5011992;28;20061;-72
2022/12/01 01:00:58;;;;;;;247.23;57.78;;;;;;;;;;5006663;28;20048;-72
2022/12/01 01:03:24;;;;;;;211.10;56.42;;;;;;;;;;5018104;28;20026;-72
2022/12/01 01:05:50;;;;;;;238.40;59.05;;;;;;;;;;5012640;28;20050;-72
2022/12/01 01:08:16;;;;;;;216.63;56.67;;;;;;;;;;5014970;28;20403;-71
2022/12/01 01:10:44;;;;;;;259.55;60.20;;;;;;;;;;5019534;28;20041;-72
2022/12/01 01:13:10;;;;;;;242.98;58.65;;;;;;;;;;5015831;28;20036;-72
2022/12/01 01:15:37;;;;;;;243.63;58.78;;;;;;;;;;5027371;28;20087;-72
2022/12/01 01:18:04;;;;;;;248.95;63.42;;;;;;;;;;5022213;28;20482;-72
2022/12/01 01:20:30;;;;;;;259.77;57.20;;;;;;;;;;5025125;28;20033;-72
2022/12/01 01:22:56;;;;;;;248.40;56.42;;;;;;;;;;5025514;28;20132;-72
2022/12/01 01:25:23;;;;;;;245.40;55.05;;;;;;;;;;5032209;28;20083;-72
2022/12/01 01:27:49;;;;;;;241.63;56.53;;;;;;;;;;5030426;28;20039;-72
2022/12/01 01:30:15;;;;;;;229.63;55.63;;;;;;;;;;5014082;28;20192;-72
2022/12/01 01:32:42;;;;;;;261.60;59.90;;;;;;;;;;5030008;28;20037;-71
2022/12/01 01:35:08;;;;;;;259.23;57.10;;;;;;;;;;5028043;28;20038;-71
2022/12/01 01:37:34;;;;;;;253.98;61.15;;;;;;;;;;5023781;28;20486;-70
2022/12/01 01:40:00;;;;;;;272.40;67.00;;;;;;;;;;5031517;28;20041;-71
2022/12/01 01:42:26;;;;;;;267.85;65.15;;;;;;;;;;5022138;28;20041;-71
2022/12/01 01:44:56;;;;;;;297.70;71.05;;;;;;;;;;5027440;28;20418;-71
2022/12/01 01:47:27;;;;;;;286.90;69.63;;;;;;;;;;5026276;28;20068;-71
2022/12/01 01:49:55;;;;;;;267.65;66.93;;;;;;;;;;5020306;28;20037;-71
2022/12/01 01:52:22;;;;;;;279.58;72.45;;;;;;;;;;5014353;28;20022;-72
2022/12/01 01:54:50;;;;;;;304.75;71.47;;;;;;;;;;5031112;28;20033;-71
2022/12/01 01:57:20;;;;;;;303.75;70.13;;;;;;;;;;5017123;28;20104;-71
2022/12/01 01:59:48;;;;;;;279.67;68.90;;;;;;;;;;5030281;28;20072;-71
2022/12/01 02:02:14;;;;;;;294.92;69.75;;;;;;;;;;5018186;28;20026;-71
2022/12/01 02:04:44;;;;;;;310.52;69.97;;;;;;;;;;5029367;28;20080;-71
2022/12/01 02:07:11;;;;;;;272.55;67.30;;;;;;;;;;5025146;28;20021;-71
2022/12/01 02:09:38;;;;;;;276.42;66.47;;;;;;;;;;5018791;28;20022;-73
2022/12/01 02:12:13;;;;;;;254.82;66.65;;;;;;;;;;5028321;28;20108;-72
2022/12/01 02:14:48;;;;;;;252.43;65.85;;;;;;;;;;5035799;28;20041;-73
2022/12/01 02:17:14;;;;;;;283.40;71.32;;;;;;;;;;4996886;28;20038;-72
2022/12/01 02:19:40;;;;;;;268.73;69.78;;;;;;;;;;5014877;28;20153;-72
2022/12/01 02:22:16;;;;;;;284.08;69.45;;;;;;;;;;5020270;28;20018;-73
2022/12/01 02:24:50;;;;;;;295.65;70.45;;;;;;;;;;5020057;28;20029;-72
2022/12/01 02:27:22;;;;;;;274.65;70.32;;;;;;;;;;5023839;28;20030;-72
2022/12/01 02:29:54;;;;;;;294.85;70.53;;;;;;;;;;5013612;28;20489;-72
2022/12/01 02:32:20;;;;;;;291.25;70.97;;;;;;;;;;5021576;28;20112;-71
2022/12/01 02:34:57;;;;;;;287.13;70.70;;;;;;;;;;5028075;28;20069;-71
2022/12/01 02:37:28;;;;;;;283.65;67.57;;;;;;;;;;5021750;28;20025;-73
2022/12/01 02:40:02;;;;;;;276.33;69.22;;;;;;;;;;5023001;28;20445;-72
2022/12/01 02:42:50;;;;;;;283.75;70.20;;;;;;;;;;5028492;28;20055;-72
2022/12/01 02:45:28;;;;;;;286.13;71.03;;;;;;;;;;5014263;28;20514;-71
2022/12/01 02:47:56;;;;;;;278.52;68.72;;;;;;;;;;5023703;28;20037;-72
2022/12/01 02:50:23;;;;;;;281.08;72.95;;;;;;;;;;5031349;28;20494;-71
2022/12/01 02:52:49;;;;;;;261.20;69.40;;;;;;;;;;5025796;28;20088;-72
2022/12/01 02:55:15;;;;;;;277.98;71.82;;;;;;;;;;5031239;28;20041;-73
2022/12/01 02:57:42;;;;;;;284.17;70.65;;;;;;;;;;5018002;28;20428;-73
2022/12/01 03:00:12;;;;;;;291.80;71.93;;;;;;;;;;4994384;28;20372;-73
2022/12/01 03:02:57;;;;;;;286.40;71.22;;;;;;;;;;5023672;28;20047;-72
2022/12/01 03:05:43;;;;;;;277.55;72.28;;;;;;;;;;5024777;28;20022;-72
2022/12/01 03:08:18;;;;;;;279.17;69.78;;;;;;;;;;5026835;28;20029;-72
2022/12/01 03:10:52;;;;;;;301.52;72.00;;;;;;;;;;5012497;28;20025;-72
2022/12/01 03:13:33;;;;;;;286.27;73.20;;;;;;;;;;5025234;28;20028;-73
2022/12/01 03:16:12;;;;;;;293.13;72.60;;;;;;;;;;5027394;28;20069;-73
2022/12/01 03:18:41;;;;;;;295.58;70.03;;;;;;;;;;5012916;28;20030;-73
2022/12/01 03:21:09;;;;;;;279.52;70.72;;;;;;;;;;5026268;28;20048;-73
2022/12/01 03:23:39;;;;;;;292.52;71.82;;;;;;;;;;5013573;28;20022;-72
2022/12/01 03:26:07;;;;;;;300.83;71.70;;;;;;;;;;5011601;28;20030;-73
2022/12/01 03:28:36;;;;;;;304.02;71.40;;;;;;;;;;5030626;28;20035;-72
2022/12/01 03:31:05;;;;;;;295.13;66.35;;;;;;;;;;5026010;28;20403;-72
2022/12/01 03:33:40;;;;;;;296.33;66.70;;;;;;;;;;5027668;28;20040;-72
2022/12/01 03:36:10;;;;;;;296.45;67.40;;;;;;;;;;5017696;28;20034;-72
2022/12/01 03:38:37;;;;;;;297.00;72.18;;;;;;;;;;5024282;28;20057;-72
2022/12/01 03:41:07;;;;;;;304.27;68.78;;;;;;;;;;4979900;28;20049;-72
2022/12/01 03:43:34;;;;;;;293.25;65.53;;;;;;;;;;5026719;28;20034;-72
2022/12/01 03:46:06;;;;;;;275.55;67.47;;;;;;;;;;5025356;28;20119;-72
2022/12/01 03:48:33;;;;;;;283.27;66.55;;;;;;;;;;5029144;28;20033;-72
2022/12/01 03:51:02;;;;;;;271.20;64.68;;;;;;;;;;5027454;28;20083;-72
2022/12/01 03:53:33;;;;;;;301.17;72.35;;;;;;;;;;5016452;28;20563;-71
2022/12/01 03:56:02;;;;;;;291.30;68.70;;;;;;;;;;5010740;28;20128;-71
2022/12/01 03:58:33;;;;;;;290.90;65.75;;;;;;;;;;5023518;28;20128;-72
2022/12/01 04:01:01;;;;;;;296.10;67.05;;;;;;;;;;5019044;28;20034;-72
2022/12/01 04:03:27;;;;;;;285.85;67.15;;;;;;;;;;4989165;28;20041;-72
2022/12/01 04:05:54;;;;;;;307.20;70.30;;;;;;;;;;5024626;28;20029;-71
2022/12/01 04:08:20;;;;;;;320.17;72.28;;;;;;;;;;5019572;28;20116;-71
2022/12/01 04:10:46;;;;;;;323.20;72.18;;;;;;;;;;5028126;28;20103;-72
2022/12/01 04:13:21;;;;;;;309.77;67.68;;;;;;;;;;5025521;28;20058;-71
2022/12/01 04:15:49;;;;;;;316.50;68.78;;;;;;;;;;5026667;28;20315;-71
2022/12/01 04:18:15;;;;;;;297.95;72.88;;;;;;;;;;5021803;28;20466;-71
2022/12/01 04:20:42;;;;;;;317.65;72.57;;;;;;;;;;5009790;28;20029;-71
2022/12/01 04:23:08;;;;;;;326.85;71.03;;;;;;;;;;5018615;28;20043;-71
2022/12/01 04:25:35;;;;;;;315.00;71.65;;;;;;;;;;5028677;28;20041;-71
2022/12/01 04:28:01;;;;;;;300.52;66.63;;;;;;;;;;5022920;28;20155;-71
2022/12/01 04:30:27;;;;;;;316.10;68.70;;;;;;;;;;5030815;28;20332;-71
2022/12/01 04:32:53;;;;;;;348.92;68.53;;;;;;;;;;5015164;28;20050;-71
2022/12/01 04:35:21;;;;;;;336.02;71.63;;;;;;;;;;5016203;28;20541;-71
2022/12/01 04:37:47;;;;;;;337.90;73.63;;;;;;;;;;5009520;28;20538;-71
2022/12/01 04:40:13;;;;;;;345.25;70.22;;;;;;;;;;5029254;28;20056;-71
2022/12/01 04:42:39;;;;;;;322.25;68.30;;;;;;;;;;5018019;28;20025;-70
2022/12/01 04:45:05;;;;;;;347.98;72.00;;;;;;;;;;5022517;28;20041;-71
2022/12/01 04:47:32;;;;;;;324.75;65.70;;;;;;;;;;4999998;28;20042;-71
2022/12/01 04:49:59;;;;;;;330.48;66.72;;;;;;;;;;5008191;28;20038;-70
2022/12/01 04:52:25;;;;;;;331.88;62.97;;;;;;;;;;5002089;28;20046;-71
2022/12/01 04:54:51;;;;;;;392.80;73.53;;;;;;;;;;5006204;28;20553;-71
2022/12/01 04:57:17;;;;;;;363.83;67.80;;;;;;;;;;4996704;28;20030;-71
2022/12/01 04:59:43;;;;;;;341.20;70.93;;;;;;;;;;5008692;28;20057;-70
2022/12/01 05:02:09;;;;;;;365.60;75.45;;;;;;;;;;4999093;28;20042;-70
2022/12/01 05:04:38;;;;;;;401.42;75.05;;;;;;;;;;5001189;28;20125;-70
2022/12/01 05:07:04;;;;;;;411.80;70.60;;;;;;;;;;5000760;28;20034;-71
2022/12/01 05:09:30;;;;;;;367.30;72.57;;;;;;;;;;4998405;28;20077;-71
2022/12/01 05:11:57;;;;;;;411.33;77.78;;;;;;;;;;4999439;28;20045;-71
2022/12/01 05:14:23;;;;;;;404.58;77.85;;;;;;;;;;5002941;28;20042;-71
2022/12/01 05:16:49;;;;;;;400.75;75.97;;;;;;;;;;5005074;28;20048;-71
2022/12/01 05:22:00;;;;;;;419.25;72.60;;;;;;;;;;5002100;28;20045;-71
2022/12/01 05:24:26;;;;;;;444.63;70.32;;;;;;;;;;5007673;28;20064;-71
2022/12/01 05:26:52;;;;;;;422.80;74.07;;;;;;;;;;5008890;28;20049;-71
2022/12/01 05:29:18;;;;;;;445.90;82.43;;;;;;;;;;4998987;28;20456;-71
2022/12/01 05:31:45;;;;;;;423.38;80.03;;;;;;;;;;4997022;28;20108;-70
2022/12/01 05:34:11;;;;;;;465.48;87.57;;;;;;;;;;5008362;28;20125;-71
2022/12/01 05:36:37;;;;;;;462.60;84.82;;;;;;;;;;5000596;28;20451;-71
2022/12/01 05:39:04;;;;;;;453.88;83.78;;;;;;;;;;4989848;28;20492;-71
2022/12/01 05:41:30;;;;;;;470.33;87.88;;;;;;;;;;4990141;28;20515;-71
2022/12/01 05:43:57;;;;;;;444.92;90.03;;;;;;;;;;4999430;28;20034;-71
2022/12/01 05:46:23;;;;;;;423.27;87.40;;;;;;;;;;5016470;28;20087;-71
2022/12/01 05:48:49;;;;;;;455.63;90.75;;;;;;;;;;5028485;28;20600;-71
2022/12/01 05:51:16;;;;;;;443.88;87.85;;;;;;;;;;5014473;28;20041;-70
2022/12/01 05:53:42;;;;;;;442.63;83.43;;;;;;;;;;5018006;28;20029;-70
2022/12/01 05:56:08;;;;;;;407.85;82.30;;;;;;;;;;5028776;28;20128;-70
2022/12/01 05:58:35;;;;;;;447.42;86.30;;;;;;;;;;5022342;28;20167;-70
2022/12/01 06:01:01;;;;;;;466.90;86.15;;;;;;;;;;5026475;28;20029;-70
2022/12/01 06:03:27;;;;;;;450.80;82.40;;;;;;;;;;4996078;28;20139;-70
2022/12/01 06:05:53;;;;;;;401.27;76.15;;;;;;;;;;5022880;28;20556;-71
2022/12/01 06:08:20;;;;;;;438.48;75.78;;;;;;;;;;5024559;28;20494;-70
2022/12/01 06:10:46;;;;;;;431.02;75.72;;;;;;;;;;5019421;28;20037;-71
2022/12/01 06:13:12;;;;;;;397.95;69.95;;;;;;;;;;4997353;28;20042;-71
2022/12/01 06:15:38;;;;;;;507.35;79.05;;;;;;;;;;5031795;28;20128;-71
2022/12/01 06:18:04;;;;;;;506.25;78.47;;;;;;;;;;5013195;28;20034;-71
2022/12/01 06:20:31;;;;;;;442.42;78.85;;;;;;;;;;5023949;28;20026;-71
2022/12/01 06:22:58;;;;;;;427.98;78.35;;;;;;;;;;5021748;28;20068;-71
2022/12/01 06:25:24;;;;;;;450.88;74.88;;;;;;;;;;4999057;28;20105;-71
2022/12/01 06:27:54;;;;;;;429.98;77.35;;;;;;;;;;5023496;28;20061;-71
2022/12/01 06:30:21;;;;;;;427.77;80.10;;;;;;;;;;5024538;28;20323;-71
2022/12/01 06:32:47;;;;;;;453.58;80.78;;;;;;;;;;5025136;28;20288;-70
2022/12/01 06:35:14;;;;;;;469.70;82.95;;;;;;;;;;5028245;28;20048;-71
2022/12/01 06:37:40;;;;;;;497.10;83.40;;;;;;;;;;5030489;28;20388;-70
2022/12/01 06:40:06;;;;;;;487.83;78.78;;;;;;;;;;5021658;28;20037;-71
2022/12/01 06:42:32;;;;;;;451.70;76.13;;;;;;;;;;5022666;28;20029;-70
2022/12/01 06:44:58;;;;;;;431.02;73.88;;;;;;;;;;5026869;28;20030;-71
2022/12/01 06:47:25;;;;;;;456.27;77.55;;;;;;;;;;5022187;28;20869;-70
2022/12/01 06:49:51;;;;;;;443.08;76.47;;;;;;;;;;5003661;28;20033;-71
2022/12/01 06:52:17;;;;;;;436.88;74.00;;;;;;;;;;5022956;28;20098;-71
2022/12/01 06:54:43;;;;;;;452.05;77.63;;;;;;;;;;5021053;28;20505;-71
2022/12/01 06:57:09;;;;;;;451.83;78.22;;;;;;;;;;5028923;28;20045;-70
2022/12/01 06:59:36;;;;;;;464.95;77.57;;;;;;;;;;5002247;28;20100;-70
2022/12/01 07:02:02;;;;;;;464.88;76.45;;;;;;;;;;5027454;28;20022;-70
2022/12/01 07:04:29;;;;;;;462.55;76.47;;;;;;;;;;5019535;28;20042;-71
2022/12/01 07:06:55;;;;;;;495.70;79.07;;;;;;;;;;5027991;28;20091;-71
2022/12/01 07:09:21;;;;;;;450.33;76.50;;;;;;;;;;5026506;28;20092;-69
2022/12/01 07:11:47;;;;;;;503.85;80.05;;;;;;;;;;5029373;28;20569;-71
2022/12/01 07:14:22;;;;;;;482.35;77.95;;;;;;;;;;5025753;28;20053;-71
2022/12/01 07:16:48;;;;;;;490.35;80.03;;;;;;;;;;5016710;28;20034;-71
2022/12/01 07:19:14;;;;;;;462.88;78.85;;;;;;;;;;5017590;28;20046;-71
2022/12/01 07:21:40;;;;;;;472.67;79.28;;;;;;;;;;5010441;28;20084;-71
2022/12/01 07:24:06;;;;;;;477.25;80.03;;;;;;;;;;5023739;28;20059;-71
2022/12/01 07:26:32;;;;;;;435.30;78.90;;;;;;;;;;5029942;28;20037;-71
2022/12/01 07:28:59;;;;;;;437.13;79.18;;;;;;;;;;5031103;28;20034;-70
2022/12/01 07:31:25;;;;;;;461.40;83.30;;;;;;;;;;5022910;28;20044;-70
2022/12/01 07:33:52;;;;;;;467.80;81.93;;;;;;;;;;5022323;28;20077;-70
2022/12/01 07:36:18;;;;;;;450.58;80.88;;;;;;;;;;5030557;28;20322;-68
2022/12/01 07:38:44;;;;;;;452.20;81.65;;;;;;;;;;5028752;28;20040;-71
2022/12/01 07:41:12;;;;;;;454.67;80.75;;;;;;;;;;5012031;28;20025;-70
2022/12/01 07:43:38;;;;;;;450.80;79.75;;;;;;;;;;5030637;28;20026;-70
2022/12/01 07:46:09;;;;;;;474.25;81.30;;;;;;;;;;5026902;28;20961;-70
2022/12/01 07:48:36;;;;;;;434.90;79.88;;;;;;;;;;5021723;28;20021;-70
2022/12/01 07:51:03;;;;;;;454.15;82.40;;;;;;;;;;5025273;28;20029;-70
2022/12/01 07:53:29;;;;;;;436.65;84.70;;;;;;;;;;5006657;28;20218;-70
2022/12/01 07:55:55;;;;;;;425.77;80.95;;;;;;;;;;5022555;28;20096;-70
2022/12/01 07:58:21;;;;;;;461.52;83.30;;;;;;;;;;5027860;28;20040;-70
2022/12/01 08:00:48;;;;;;;443.10;78.82;;;;;;;;;;5027133;28;20044;-70
2022/12/01 08:03:14;;;;;;;424.65;78.57;;;;;;;;;;5027769;28;20104;-70
2022/12/01 08:05:40;;;;;;;448.40;80.05;;;;;;;;;;5026657;28;20037;-69
2022/12/01 08:08:06;;;;;;;460.35;76.88;;;;;;;;;;5026358;28;20030;-70
2022/12/01 08:10:32;;;;;;;422.88;80.72;;;;;;;;;;4987096;28;20025;-72
2022/12/01 08:12:58;;;;;;;423.60;81.35;;;;;;;;;;5003661;28;20029;-71
2022/12/01 08:15:24;;;;;;;393.45;78.45;;;;;;;;;;5026293;28;20069;-71
2022/12/01 08:17:50;;;;;;;426.95;85.50;;;;;;;;;;5023320;28;20125;-71
2022/12/01 08:20:16;;;;;;;423.55;84.53;;;;;;;;;;5018432;28;20414;-70
2022/12/01 08:22:43;;;;;;;431.95;86.25;;;;;;;;;;5003356;28;20048;-71
2022/12/01 08:25:09;;;;;;;421.27;84.32;;;;;;;;;;5018734;28;20037;-71
2022/12/01 08:27:35;;;;;;;417.65;82.68;;;;;;;;;;5016265;28;20041;-71
2022/12/01 08:30:01;;;;;;;426.63;87.50;;;;;;;;;;5018749;28;20133;-71
2022/12/01 08:32:28;;;;;;;413.63;86.90;;;;;;;;;;5015748;28;20091;-71
2022/12/01 08:34:54;;;;;;;410.05;81.63;;;;;;;;;;5016392;28;20044;-71
2022/12/01 08:37:20;;;;;;;412.52;82.93;;;;;;;;;;5015920;28;20127;-71
2022/12/01 08:39:47;;;;;;;378.20;82.75;;;;;;;;;;5024019;28;20364;-70
2022/12/01 08:42:13;;;;;;;376.00;77.50;;;;;;;;;;4986285;28;20029;-71
2022/12/01 08:44:39;;;;;;;390.65;81.63;;;;;;;;;;4998598;28;20037;-71
2022/12/01 08:47:05;;;;;;;359.52;75.40;;;;;;;;;;5014420;28;20383;-70
2022/12/01 08:49:31;;;;;;;364.73;80.13;;;;;;;;;;5015598;28;20115;-70
2022/12/01 08:51:57;;;;;;;386.17;79.45;;;;;;;;;;5019454;28;20044;-71
2022/12/01 08:54:23;;;;;;;381.08;79.65;;;;;;;;;;5021712;28;20095;-71
2022/12/01 08:56:50;;;;;;;390.27;80.97;;;;;;;;;;5019397;28;20021;-71
2022/12/01 08:59:16;;;;;;;342.65;74.38;;;;;;;;;;5020186;28;20026;-71
2022/12/01 09:01:51;;;;;;;335.95;79.65;;;;;;;;;;5003245;28;20041;-71
2022/12/01 09:04:22;;;;;;;336.13;75.68;;;;;;;;;;5007418;28;20081;-70
2022/12/01 09:06:48;;;;;;;374.13;80.30;;;;;;;;;;5024858;28;20025;-70
2022/12/01 09:09:16;;;;;;;340.30;81.68;;;;;;;;;;5024197;28;20033;-70
2022/12/01 09:11:42;;;;;;;327.20;75.32;;;;;;;;;;5023157;28;20117;-70
2022/12/01 09:14:09;;;;;;;344.63;75.63;;;;;;;;;;5024749;28;20116;-71
2022/12/01 09:16:35;;;;;;;342.77;76.78;;;;;;;;;;5014409;28;20026;-70
2022/12/01 09:19:01;;;;;;;335.90;74.65;;;;;;;;;;5025416;28;20083;-70
2022/12/01 09:21:31;;;;;;;339.20;72.18;;;;;;;;;;5023437;28;20047;-71
2022/12/01 09:23:58;;;;;;;299.17;70.53;;;;;;;;;;5024276;28;20032;-71
2022/12/01 09:26:25;;;;;;;298.77;71.57;;;;;;;;;;5023133;28;20094;-70
2022/12/01 09:28:56;;;;;;;331.17;74.07;;;;;;;;;;5004643;28;20027;-70
2022/12/01 09:31:22;;;;;;;345.08;75.63;;;;;;;;;;5020566;28;20655;-70
2022/12/01 09:33:53;;;;;;;333.42;73.65;;;;;;;;;;5025431;28;20388;-70
2022/12/01 09:36:19;;;;;;;327.20;78.90;;;;;;;;;;5028073;28;20167;-70
2022/12/01 09:38:45;;;;;;;314.40;74.50;;;;;;;;;;5023485;28;20454;-70
2022/12/01 09:41:16;;;;;;;327.75;76.50;;;;;;;;;;5043046;28;20033;-70
2022/12/01 09:43:44;;;;;;;;;;;;;;;;;;5031925;28;20168;-70
2022/12/01 09:46:16;;;;;;;310.98;74.03;;;;;;;;;;5031297;28;19909;-70
2022/12/01 09:48:44;;;;;;;284.90;71.63;;;;;;;;;;5027460;28;20034;-70
2022/12/01 09:51:18;;;;;;;301.73;73.22;;;;;;;;;;5024453;28;20026;-69
2022/12/01 09:53:44;;;;;;;298.45;73.88;;;;;;;;;;5031422;28;20040;-70
2022/12/01 09:56:21;;;;;;;280.35;75.40;;;;;;;;;;5029653;28;20033;-70
2022/12/01 09:58:50;;;;;;;276.25;78.72;;;;;;;;;;5025729;28;20025;-69
2022/12/01 10:01:17;;;;;;;260.40;73.63;;;;;;;;;;5025757;28;20118;-70
2022/12/01 10:03:47;;;;;;;242.18;70.63;;;;;;;;;;5025125;28;20034;-70
2022/12/01 10:06:18;;;;;;;235.40;70.47;;;;;;;;;;5025810;28;20159;-70
2022/12/01 10:08:56;;;;;;;238.93;68.53;;;;;;;;;;5025786;28;20116;-70
2022/12/01 10:11:36;;;;;;;229.88;66.72;;;;;;;;;;5040672;28;20044;-70
2022/12/01 10:14:03;;;;;;;242.95;70.07;;;;;;;;;;5022018;28;20033;-70
2022/12/01 10:16:34;;;;;;;234.52;69.78;;;;;;;;;;5027875;28;20025;-71
2022/12/01 10:19:27;;;;;;;227.23;69.40;;;;;;;;;;5027266;28;20041;-71
2022/12/01 10:21:53;;;;;;;213.77;64.32;;;;;;;;;;4996043;28;20621;-70
2022/12/01 10:24:35;;;;;;;206.90;65.72;;;;;;;;;;5027702;28;20097;-71
2022/12/01 10:27:01;;;;;;;191.85;61.95;;;;;;;;;;5022395;28;20084;-69
2022/12/01 10:29:46;;;;;;;187.13;63.78;;;;;;;;;;5033691;28;20026;-69
2022/12/01 10:32:20;;;;;;;187.52;61.35;;;;;;;;;;5023510;28;20041;-69
2022/12/01 10:34:47;;;;;;;185.77;63.47;;;;;;;;;;5021969;28;20447;-70
2022/12/01 10:37:23;;;;;;;169.93;60.47;;;;;;;;;;5024056;28;20049;-70
2022/12/01 10:39:51;;;;;;;146.68;56.35;;;;;;;;;;5020404;28;20127;-70
2022/12/01 10:42:29;;;;;;;155.38;57.75;;;;;;;;;;5024503;28;20078;-69
2022/12/01 10:44:56;;;;;;;152.05;57.10;;;;;;;;;;5023609;28;20090;-70
2022/12/01 10:47:24;;;;;;;120.78;50.42;;;;;;;;;;5025077;28;20094;-69
2022/12/01 10:49:50;;;;;;;134.18;53.00;;;;;;;;;;5022184;28;20048;-70
2022/12/01 10:52:29;;;;;;;120.85;48.35;;;;;;;;;;5018842;28;20026;-70
2022/12/01 10:54:55;;;;;;;111.82;47.58;;;;;;;;;;5022551;28;20053;-70
2022/12/01 10:57:21;;;;;;;101.80;45.70;;;;;;;;;;5022148;28;20044;-70
2022/12/01 10:59:47;;;;;;;102.05;45.45;;;;;;;;;;5022379;28;20034;-70
2022/12/01 11:02:15;;;;;;;110.57;45.42;;;;;;;;;;5027518;28;20022;-69
2022/12/01 11:05:00;;;;;;;107.00;45.33;;;;;;;;;;5021937;28;20037;-69
2022/12/01 11:07:34;;;;;;;106.05;45.03;;;;;;;;;;5018252;28;20100;-70
2022/12/01 11:10:05;;;;;;;112.18;48.42;;;;;;;;;;5012355;28;20064;-70
2022/12/01 11:12:31;;;;;;;113.00;46.58;;;;;;;;;;5012046;28;20042;-70
2022/12/01 11:14:57;;;;;;;99.15;43.10;;;;;;;;;;5011699;28;20133;-72
2022/12/01 11:17:35;;;;;;;149.85;49.15;;;;;;;;;;5024369;28;20105;-72
2022/12/01 11:20:20;;;;;;;101.28;43.58;;;;;;;;;;5027416;28;20029;-72
2022/12/01 11:22:46;;;;;;;98.03;41.05;;;;;;;;;;5026154;28;20029;-71
2022/12/01 11:25:21;;;;;;;105.55;44.92;;;;;;;;;;5010017;28;20287;-71
2022/12/01 11:27:49;;;;;;;100.13;45.22;;;;;;;;;;5003938;28;20048;-71
2022/12/01 11:30:26;;;;;;;84.57;37.28;;;;;;;;;;5029660;28;20062;-71
2022/12/01 11:32:53;;;;;;;83.72;39.03;;;;;;;;;;5012458;28;20080;-71
2022/12/01 11:35:21;;;;;;;82.93;38.75;;;;;;;;;;5016462;28;20152;-71
2022/12/01 11:37:52;;;;;;;86.03;39.92;;;;;;;;;;5025299;28;20428;-71
2022/12/01 11:40:18;;;;;;;;;;;;;;;;;;5026082;28;20029;-68
2022/12/01 11:42:51;;;;;;;79.20;34.30;;;;;;;;;;5022927;28;19931;-72
2022/12/01 11:45:20;;;;;;;79.10;36.55;;;;;;;;;;5029349;28;20048;-71
2022/12/01 11:48:16;;;;;;;75.80;33.92;;;;;;;;;;5026200;28;20461;-71
2022/12/01 11:50:43;;;;;;;73.82;33.28;;;;;;;;;;4995288;28;20498;-71
2022/12/01 11:53:24;;;;;;;69.18;32.95;;;;;;;;;;5011269;28;20106;-69
2022/12/01 11:55:50;;;;;;;67.47;32.20;;;;;;;;;;5013243;28;20033;-72
2022/12/01 11:58:17;;;;;;;65.90;33.55;;;;;;;;;;5027151;28;20029;-71
2022/12/01 12:00:46;;;;;;;72.63;34.78;;;;;;;;;;5027636;28;20053;-72
2022/12/01 12:03:12;;;;;;;70.65;36.40;;;;;;;;;;5024472;28;20486;-72
2022/12/01 12:05:49;;;;;;;77.28;36.55;;;;;;;;;;5009109;28;20034;-71
2022/12/01 12:08:24;;;;;;;81.97;37.83;;;;;;;;;;5015756;28;20038;-70
2022/12/01 12:10:58;;;;;;;74.55;36.85;;;;;;;;;;5028586;28;20037;-69
2022/12/01 12:13:28;;;;;;;69.05;35.38;;;;;;;;;;5019841;28;20029;-69
2022/12/01 12:16:02;;;;;;;69.93;35.63;;;;;;;;;;5019623;28;20503;-70
2022/12/01 12:18:34;;;;;;;68.38;34.35;;;;;;;;;;5012067;28;20053;-70
2022/12/01 12:21:16;;;;;;;73.88;34.25;;;;;;;;;;5022991;28;20018;-70
2022/12/01 12:24:00;;;;;;;64.88;35.35;;;;;;;;;;5020833;28;20034;-70
2022/12/01 12:26:34;;;;;;;65.88;33.53;;;;;;;;;;5023074;28;20067;-71
2022/12/01 12:29:16;;;;;;;65.85;34.83;;;;;;;;;;5020812;28;20077;-68
2022/12/01 12:31:42;;;;;;;70.13;34.50;;;;;;;;;;5019293;28;20048;-68
2022/12/01 12:34:27;;;;;;;66.55;34.70;;;;;;;;;;5021203;28;20136;-68
2022/12/01 12:36:56;;;;;;;60.63;33.70;;;;;;;;;;5011930;28;20106;-68
2022/12/01 12:39:35;;;;;;;63.65;34.97;;;;;;;;;;5023041;28;20034;-68
2022/12/01 12:42:03;;;;;;;59.38;33.33;;;;;;;;;;5020968;28;20123;-68
2022/12/01 12:44:42;;;;;;;60.95;33.28;;;;;;;;;;5011281;28;20127;-68
2022/12/01 12:47:17;;;;;;;58.78;32.28;;;;;;;;;;5017924;28;20035;-68
2022/12/01 12:49:47;;;;;;;61.72;33.13;;;;;;;;;;5016954;28;20064;-68
2022/12/01 12:52:16;;;;;;;66.07;34.42;;;;;;;;;;5026584;28;20013;-69
2022/12/01 12:54:54;;;;;;;69.13;35.30;;;;;;;;;;5022375;28;20076;-68
2022/12/01 12:57:20;;;;;;;68.38;35.33;;;;;;;;;;5019448;28;20028;-68
2022/12/01 12:59:57;;;;;;;64.70;34.78;;;;;;;;;;5032263;28;20017;-68
2022/12/01 13:02:26;;;;;;;64.85;35.63;;;;;;;;;;5017933;28;20029;-68
2022/12/01 13:04:52;;;;;;;67.72;35.78;;;;;;;;;;5029382;28;20123;-69
2022/12/01 13:07:30;;;;;;;75.70;37.92;;;;;;;;;;5013689;28;20092;-68
2022/12/01 13:09:59;;;;;;;68.72;36.13;;;;;;;;;;5010057;28;20037;-68
2022/12/01 13:12:29;;;;;;;63.95;35.03;;;;;;;;;;5015828;28;20030;-69
2022/12/01 13:14:58;;;;;;;66.05;36.15;;;;;;;;;;5020763;28;20041;-68
2022/12/01 13:17:37;;;;;;;62.90;33.58;;;;;;;;;;5025726;28;20048;-68
2022/12/01 13:20:04;;;;;;;64.25;34.03;;;;;;;;;;5029333;28;20025;-69
2022/12/01 13:22:33;;;;;;;47.28;27.25;;;;;;;;;;5028379;28;20498;-68
2022/12/01 13:25:00;;;;;;;53.78;29.13;;;;;;;;;;5031644;28;20128;-68
2022/12/01 13:27:30;;;;;;;52.58;28.40;;;;;;;;;;5030870;28;20478;-68
2022/12/01 13:29:57;;;;;;;51.22;28.85;;;;;;;;;;5033697;28;20083;-69
2022/12/01 13:32:32;;;;;;;54.42;29.30;;;;;;;;;;5033172;28;20041;-68
2022/12/01 13:34:59;;;;;;;56.88;31.38;;;;;;;;;;5014637;28;20025;-69
2022/12/01 13:37:26;;;;;;;59.58;29.63;;;;;;;;;;5032888;28;20022;-68
2022/12/01 13:39:55;;;;;;;65.03;32.05;;;;;;;;;;5033566;28;20025;-68
2022/12/01 13:42:23;;;;;;;58.42;30.58;;;;;;;;;;5032906;28;20113;-68
2022/12/01 13:45:00;;;;;;;59.70;31.42;;;;;;;;;;5015573;28;20064;-68
2022/12/01 13:47:53;;;;;;;69.70;31.63;;;;;;;;;;5015105;28;20055;-69
2022/12/01 13:50:46;;;;;;;55.90;29.90;;;;;;;;;;5035342;28;20045;-68
2022/12/01 13:53:18;;;;;;;55.92;30.27;;;;;;;;;;5053156;28;20040;-68
2022/12/01 13:55:58;;;;;;;54.63;29.48;;;;;;;;;;5045353;28;20045;-68
2022/12/01 13:58:33;;;;;;;54.67;29.52;;;;;;;;;;5033038;28;20017;-68
2022/12/01 14:01:17;;;;;;;58.85;29.83;;;;;;;;;;5032948;28;20129;-68
2022/12/01 14:04:00;;;;;;;52.88;29.50;;;;;;;;;;5032446;28;20022;-68
2022/12/01 14:06:27;;;;;;;53.53;30.05;;;;;;;;;;5014652;28;20038;-68
2022/12/01 14:08:57;;;;;;;57.70;30.42;;;;;;;;;;5032635;28;20116;-68
2022/12/01 14:11:24;;;;;;;52.83;27.23;;;;;;;;;;5030417;28;20137;-67
2022/12/01 14:14:08;;;;;;;53.47;29.38;;;;;;;;;;5031822;28;20087;-68
2022/12/01 14:17:04;;;;;;;55.38;27.35;;;;;;;;;;5014465;28;20038;-68
2022/12/01 14:19:33;;;;;;;55.22;28.15;;;;;;;;;;4982050;28;20065;-68
2022/12/01 14:22:00;;;;;;;55.70;28.42;;;;;;;;;;5031731;28;20026;-67
2022/12/01 14:24:41;;;;;;;57.97;28.73;;;;;;;;;;5018043;28;20030;-68
2022/12/01 14:27:10;;;;;;;65.10;31.42;;;;;;;;;;5026783;28;20052;-68